Strona główna
METAR-TAF:

METAR-TAF

Lotnisko :

Port lotniczy Marka

Amman, Jordania

Szerokość geograficzna: 31-59N, Długość geograficzna: 035-59E, wysokość: 767 m

Aktualna obserwacja pogody

Raport powstał 1 godzina i 4 minut temu, godzina 15:00 UTC
Wiatr 7 kt od północno-północny zachód
Temperatura 30°C
Wilgotność 24%
Ciśnienie 1017 hPa
Widzialność: 6000 m

METAR: OJAM 231500Z 33007KT 6000 NSC 30/07 Q1017 NOSIG

czas: 19:04 (16:04 UTC)

Prognoza

Raport powstał 5 godziny i 4 minut temu, godzina 11:00 UTC
Prognoza ważna od 23 godzina 12 UTC do 24 godzina 18 UTC
Wiatr 8 kt od zachodnio-północny zachód
Widzialność: 5000 m
zmętnienie
Prawdopodobieństwo 30%
od 24 godzina 02 UTC do 24 godzina 06 UTC
Wiatr 1 kt z kierunków zmiennych
Widzialność: 4000 m

TAF: OJAM 231100Z 2312/2418 30008KT 5000 HZ NSC PROB30 2402/2406 VRB01KT 4000

Obserwacja i prognoza pogody dla ponad 4000 lotnisk (raport METAR i TAF).

Dostępne stacje oznaczono żółtymi i czerwonymi punktami na mapie.

Najedź kursorem aby zobaczyć nazwę stacji.

Kliknij aby zobaczyć obserwacje i prognozy pogody.

Aby zmienić mapę: kliknij na zielony przycisk z czarnym krzyżykiem, aby powiększyć; na zielony przycisk z myślnikiem, aby pomniejszyć; na zielone strzałki, aby przejść do map sąsiednich.


METAR-TAF: